sensor_id;sensor_type;location;lat;lon;timestamp;pressure;altitude;pressure_sealevel;temperature;humidity
81230;BME280;70701;44.452;18.652;2023-11-19T00:00:36;99825.75;;;1.70;71.40
81230;BME280;70701;44.452;18.652;2023-11-19T00:03:02;99814.25;;;1.65;71.30
81230;BME280;70701;44.452;18.652;2023-11-19T00:05:28;99838.22;;;1.84;70.85
81230;BME280;70701;44.452;18.652;2023-11-19T00:07:54;99845.50;;;1.76;71.35
81230;BME280;70701;44.452;18.652;2023-11-19T00:10:20;99830.94;;;1.56;71.47
81230;BME280;70701;44.452;18.652;2023-11-19T00:12:47;99826.19;;;1.37;72.47
81230;BME280;70701;44.452;18.652;2023-11-19T00:15:14;99840.25;;;1.35;72.46
81230;BME280;70701;44.452;18.652;2023-11-19T00:17:41;99825.66;;;1.31;73.11
81230;BME280;70701;44.452;18.652;2023-11-19T00:20:19;99822.34;;;1.10;73.54
81230;BME280;70701;44.452;18.652;2023-11-19T00:22:47;99816.78;;;1.38;73.72
81230;BME280;70701;44.452;18.652;2023-11-19T00:25:20;99805.59;;;1.31;72.72
81230;BME280;70701;44.452;18.652;2023-11-19T00:27:47;99808.78;;;1.33;73.15
81230;BME280;70701;44.452;18.652;2023-11-19T00:30:13;99813.50;;;1.32;73.95
81230;BME280;70701;44.452;18.652;2023-11-19T00:32:40;99805.31;;;1.68;72.81
81230;BME280;70701;44.452;18.652;2023-11-19T00:35:07;99792.94;;;1.78;71.92
81230;BME280;70701;44.452;18.652;2023-11-19T00:37:33;99796.50;;;1.78;71.90
81230;BME280;70701;44.452;18.652;2023-11-19T00:39:58;99810.13;;;1.74;71.51
81230;BME280;70701;44.452;18.652;2023-11-19T00:42:24;99804.91;;;1.85;71.93
81230;BME280;70701;44.452;18.652;2023-11-19T00:44:50;99798.72;;;1.72;72.80
81230;BME280;70701;44.452;18.652;2023-11-19T00:47:16;99797.47;;;1.50;72.95
81230;BME280;70701;44.452;18.652;2023-11-19T00:49:42;99814.81;;;1.54;73.66
81230;BME280;70701;44.452;18.652;2023-11-19T00:52:08;99807.09;;;1.60;72.85
81230;BME280;70701;44.452;18.652;2023-11-19T00:54:34;99791.31;;;1.57;72.50
81230;BME280;70701;44.452;18.652;2023-11-19T00:57:01;99802.59;;;1.87;72.08
81230;BME280;70701;44.452;18.652;2023-11-19T00:59:27;99801.25;;;1.46;73.14
81230;BME280;70701;44.452;18.652;2023-11-19T01:01:54;99785.06;;;1.09;73.89
81230;BME280;70701;44.452;18.652;2023-11-19T01:04:19;99793.84;;;1.14;74.66
81230;BME280;70701;44.452;18.652;2023-11-19T01:06:45;99801.38;;;1.33;73.65
81230;BME280;70701;44.452;18.652;2023-11-19T01:09:11;99809.22;;;1.51;73.33
81230;BME280;70701;44.452;18.652;2023-11-19T01:11:36;99786.22;;;1.24;73.43
81230;BME280;70701;44.452;18.652;2023-11-19T01:14:02;99814.09;;;1.26;73.90
81230;BME280;70701;44.452;18.652;2023-11-19T01:16:28;99814.19;;;1.29;73.70
81230;BME280;70701;44.452;18.652;2023-11-19T01:18:53;99784.91;;;1.02;73.53
81230;BME280;70701;44.452;18.652;2023-11-19T01:21:19;99794.91;;;0.94;73.61
81230;BME280;70701;44.452;18.652;2023-11-19T01:23:45;99806.66;;;0.78;74.50
81230;BME280;70701;44.452;18.652;2023-11-19T01:26:12;99786.34;;;0.51;74.98
81230;BME280;70701;44.452;18.652;2023-11-19T01:28:39;99781.63;;;0.36;75.01
81230;BME280;70701;44.452;18.652;2023-11-19T01:31:05;99800.22;;;0.14;76.63
81230;BME280;70701;44.452;18.652;2023-11-19T01:33:35;99800.31;;;0.18;77.41
81230;BME280;70701;44.452;18.652;2023-11-19T01:36:01;99796.44;;;0.47;77.04
81230;BME280;70701;44.452;18.652;2023-11-19T01:38:27;99804.88;;;0.70;74.39
81230;BME280;70701;44.452;18.652;2023-11-19T01:40:56;99780.13;;;0.38;75.57
81230;BME280;70701;44.452;18.652;2023-11-19T01:43:33;99780.94;;;0.39;75.26
81230;BME280;70701;44.452;18.652;2023-11-19T01:46:00;99792.63;;;0.52;75.69
81230;BME280;70701;44.452;18.652;2023-11-19T01:48:27;99785.09;;;0.49;75.30
81230;BME280;70701;44.452;18.652;2023-11-19T01:50:53;99781.25;;;0.37;75.90
81230;BME280;70701;44.452;18.652;2023-11-19T01:53:19;99788.34;;;0.38;75.75
81230;BME280;70701;44.452;18.652;2023-11-19T01:55:49;99753.09;;;0.09;75.99
81230;BME280;70701;44.452;18.652;2023-11-19T01:58:16;99793.75;;;0.35;75.56
81230;BME280;70701;44.452;18.652;2023-11-19T02:00:42;99786.13;;;0.28;76.02
81230;BME280;70701;44.452;18.652;2023-11-19T02:03:10;99796.19;;;-0.16;78.26
81230;BME280;70701;44.452;18.652;2023-11-19T02:05:36;99798.81;;;0.49;76.81
81230;BME280;70701;44.452;18.652;2023-11-19T02:08:02;99773.22;;;0.29;75.86
81230;BME280;70701;44.452;18.652;2023-11-19T02:10:28;99779.06;;;0.43;75.60
81230;BME280;70701;44.452;18.652;2023-11-19T02:12:54;99783.06;;;0.46;75.50
81230;BME280;70701;44.452;18.652;2023-11-19T02:15:20;99792.19;;;0.50;76.10
81230;BME280;70701;44.452;18.652;2023-11-19T02:17:50;99768.06;;;0.55;75.98
81230;BME280;70701;44.452;18.652;2023-11-19T02:20:17;99764.25;;;0.60;75.98
81230;BME280;70701;44.452;18.652;2023-11-19T02:22:48;99768.28;;;0.06;77.21
81230;BME280;70701;44.452;18.652;2023-11-19T02:25:30;99758.56;;;0.09;77.52
81230;BME280;70701;44.452;18.652;2023-11-19T02:28:02;99753.69;;;0.30;77.68
81230;BME280;70701;44.452;18.652;2023-11-19T02:30:29;99762.75;;;0.63;75.88
81230;BME280;70701;44.452;18.652;2023-11-19T02:32:55;99756.59;;;0.66;75.11
81230;BME280;70701;44.452;18.652;2023-11-19T02:35:25;99746.91;;;0.56;75.37
81230;BME280;70701;44.452;18.652;2023-11-19T02:37:51;99744.34;;;0.47;75.88
81230;BME280;70701;44.452;18.652;2023-11-19T02:40:17;99743.50;;;0.31;76.13
81230;BME280;70701;44.452;18.652;2023-11-19T02:42:43;99742.88;;;0.22;75.73
81230;BME280;70701;44.452;18.652;2023-11-19T02:45:09;99750.75;;;0.23;75.85
81230;BME280;70701;44.452;18.652;2023-11-19T02:47:40;99740.69;;;-0.01;75.71
81230;BME280;70701;44.452;18.652;2023-11-19T02:50:11;99736.50;;;-0.11;75.75
81230;BME280;70701;44.452;18.652;2023-11-19T02:52:43;99736.88;;;-0.25;76.50
81230;BME280;70701;44.452;18.652;2023-11-19T02:55:11;99729.66;;;-0.17;76.31
81230;BME280;70701;44.452;18.652;2023-11-19T02:57:39;99727.31;;;-0.31;76.24
81230;BME280;70701;44.452;18.652;2023-11-19T03:00:15;99723.28;;;-0.21;76.03
81230;BME280;70701;44.452;18.652;2023-11-19T03:02:41;99709.09;;;-0.11;74.97
81230;BME280;70701;44.452;18.652;2023-11-19T03:05:12;99710.69;;;-0.10;75.32
81230;BME280;70701;44.452;18.652;2023-11-19T03:07:42;99709.69;;;0.11;74.25
81230;BME280;70701;44.452;18.652;2023-11-19T03:10:10;99710.28;;;0.32;73.89
81230;BME280;70701;44.452;18.652;2023-11-19T03:12:40;99713.47;;;0.34;74.42
81230;BME280;70701;44.452;18.652;2023-11-19T03:15:07;99701.47;;;0.11;74.84
81230;BME280;70701;44.452;18.652;2023-11-19T03:17:36;99701.28;;;0.04;75.73
81230;BME280;70701;44.452;18.652;2023-11-19T03:20:07;99670.81;;;-0.23;75.98
81230;BME280;70701;44.452;18.652;2023-11-19T03:22:37;99696.47;;;0.29;75.48
81230;BME280;70701;44.452;18.652;2023-11-19T03:25:03;99686.94;;;0.23;75.23
81230;BME280;70701;44.452;18.652;2023-11-19T03:27:29;99689.13;;;-0.11;75.77
81230;BME280;70701;44.452;18.652;2023-11-19T03:29:55;99661.34;;;-0.26;77.60
81230;BME280;70701;44.452;18.652;2023-11-19T03:32:20;99677.16;;;-0.19;77.13
81230;BME280;70701;44.452;18.652;2023-11-19T03:34:46;99672.50;;;-0.18;77.84
81230;BME280;70701;44.452;18.652;2023-11-19T03:37:12;99678.16;;;-0.11;76.79
81230;BME280;70701;44.452;18.652;2023-11-19T03:39:42;99697.59;;;0.12;76.39
81230;BME280;70701;44.452;18.652;2023-11-19T03:42:08;99697.50;;;0.08;76.79
81230;BME280;70701;44.452;18.652;2023-11-19T03:44:33;99684.84;;;0.04;76.51
81230;BME280;70701;44.452;18.652;2023-11-19T03:47:00;99682.72;;;0.13;75.58
81230;BME280;70701;44.452;18.652;2023-11-19T03:49:26;99673.00;;;-0.01;76.12
81230;BME280;70701;44.452;18.652;2023-11-19T03:51:52;99674.38;;;0.22;76.10
81230;BME280;70701;44.452;18.652;2023-11-19T03:54:17;99680.09;;;0.16;75.74
81230;BME280;70701;44.452;18.652;2023-11-19T03:56:43;99680.03;;;0.29;75.55
81230;BME280;70701;44.452;18.652;2023-11-19T03:59:08;99657.91;;;0.22;75.22
81230;BME280;70701;44.452;18.652;2023-11-19T04:01:35;99663.31;;;0.18;75.63
81230;BME280;70701;44.452;18.652;2023-11-19T04:04:00;99675.00;;;0.31;75.18
81230;BME280;70701;44.452;18.652;2023-11-19T04:06:26;99675.44;;;0.17;75.30
81230;BME280;70701;44.452;18.652;2023-11-19T04:08:52;99669.56;;;0.03;75.81
81230;BME280;70701;44.452;18.652;2023-11-19T04:11:18;99656.94;;;0.14;75.42
81230;BME280;70701;44.452;18.652;2023-11-19T04:13:43;99621.56;;;-0.07;75.36
81230;BME280;70701;44.452;18.652;2023-11-19T04:16:09;99643.78;;;0.35;74.69
81230;BME280;70701;44.452;18.652;2023-11-19T04:18:35;99652.38;;;0.34;74.74
81230;BME280;70701;44.452;18.652;2023-11-19T04:21:01;99632.00;;;0.03;75.53
81230;BME280;70701;44.452;18.652;2023-11-19T04:23:26;99637.75;;;0.14;75.38
81230;BME280;70701;44.452;18.652;2023-11-19T04:25:52;99651.03;;;0.12;75.10
81230;BME280;70701;44.452;18.652;2023-11-19T04:28:18;99633.16;;;0.02;74.92
81230;BME280;70701;44.452;18.652;2023-11-19T04:30:43;99641.28;;;-0.02;75.80
81230;BME280;70701;44.452;18.652;2023-11-19T04:33:09;99634.44;;;-0.08;75.80
81230;BME280;70701;44.452;18.652;2023-11-19T04:35:35;99639.28;;;0.11;75.29
81230;BME280;70701;44.452;18.652;2023-11-19T04:38:01;99631.69;;;-0.08;75.75
81230;BME280;70701;44.452;18.652;2023-11-19T04:40:26;99623.47;;;-0.08;75.75
81230;BME280;70701;44.452;18.652;2023-11-19T04:42:53;99632.66;;;-0.16;76.09
81230;BME280;70701;44.452;18.652;2023-11-19T04:45:19;99637.91;;;-0.39;76.73
81230;BME280;70701;44.452;18.652;2023-11-19T04:47:45;99640.44;;;-0.46;76.49
81230;BME280;70701;44.452;18.652;2023-11-19T04:50:11;99637.50;;;-0.53;76.38
81230;BME280;70701;44.452;18.652;2023-11-19T04:52:39;99620.38;;;-0.79;76.60
81230;BME280;70701;44.452;18.652;2023-11-19T04:55:05;99625.56;;;-0.73;76.84
81230;BME280;70701;44.452;18.652;2023-11-19T04:57:31;99620.88;;;-0.61;76.99
81230;BME280;70701;44.452;18.652;2023-11-19T04:59:58;99617.09;;;-0.56;76.17
81230;BME280;70701;44.452;18.652;2023-11-19T05:02:24;99601.56;;;-0.80;76.34
81230;BME280;70701;44.452;18.652;2023-11-19T05:04:50;99608.81;;;-0.72;76.64
81230;BME280;70701;44.452;18.652;2023-11-19T05:07:15;99584.91;;;-0.75;77.67
81230;BME280;70701;44.452;18.652;2023-11-19T05:09:41;99577.47;;;-0.46;76.00
81230;BME280;70701;44.452;18.652;2023-11-19T05:12:08;99562.69;;;-0.29;76.15
81230;BME280;70701;44.452;18.652;2023-11-19T05:14:37;99560.00;;;-0.42;76.97
81230;BME280;70701;44.452;18.652;2023-11-19T05:17:03;99566.22;;;-0.57;77.02
81230;BME280;70701;44.452;18.652;2023-11-19T05:19:29;99557.44;;;-0.79;78.08
81230;BME280;70701;44.452;18.652;2023-11-19T05:21:54;99568.38;;;-0.79;78.21
81230;BME280;70701;44.452;18.652;2023-11-19T05:24:20;99567.31;;;-0.74;78.59
81230;BME280;70701;44.452;18.652;2023-11-19T05:26:46;99555.84;;;-0.51;77.72
81230;BME280;70701;44.452;18.652;2023-11-19T05:29:12;99557.66;;;-0.27;76.26
81230;BME280;70701;44.452;18.652;2023-11-19T05:31:38;99558.19;;;-0.22;76.19
81230;BME280;70701;44.452;18.652;2023-11-19T05:34:04;99555.16;;;-0.32;76.62
81230;BME280;70701;44.452;18.652;2023-11-19T05:36:29;99537.94;;;-0.49;75.84
81230;BME280;70701;44.452;18.652;2023-11-19T05:38:55;99566.09;;;-0.48;76.49
81230;BME280;70701;44.452;18.652;2023-11-19T05:41:21;99567.09;;;-0.69;76.19
81230;BME280;70701;44.452;18.652;2023-11-19T05:43:47;99581.34;;;-0.75;76.02
81230;BME280;70701;44.452;18.652;2023-11-19T05:46:12;99579.91;;;-0.85;76.21
81230;BME280;70701;44.452;18.652;2023-11-19T05:48:38;99577.22;;;-0.98;76.58
81230;BME280;70701;44.452;18.652;2023-11-19T05:51:04;99591.69;;;-1.09;76.51
81230;BME280;70701;44.452;18.652;2023-11-19T05:53:31;99607.53;;;-1.03;76.49
81230;BME280;70701;44.452;18.652;2023-11-19T05:55:57;99603.69;;;-1.14;76.58
81230;BME280;70701;44.452;18.652;2023-11-19T05:58:26;99609.81;;;-1.17;76.64
81230;BME280;70701;44.452;18.652;2023-11-19T06:00:55;99608.66;;;-1.04;76.42
81230;BME280;70701;44.452;18.652;2023-11-19T06:03:21;99595.66;;;-0.94;76.41
81230;BME280;70701;44.452;18.652;2023-11-19T06:05:47;99604.31;;;-0.92;76.53
81230;BME280;70701;44.452;18.652;2023-11-19T06:08:14;99608.88;;;-0.84;76.35
81230;BME280;70701;44.452;18.652;2023-11-19T06:10:41;99606.03;;;-0.88;76.03
81230;BME280;70701;44.452;18.652;2023-11-19T06:13:06;99599.38;;;-0.87;76.49
81230;BME280;70701;44.452;18.652;2023-11-19T06:15:33;99588.91;;;-0.85;76.02
81230;BME280;70701;44.452;18.652;2023-11-19T06:17:59;99596.41;;;-0.82;76.30
81230;BME280;70701;44.452;18.652;2023-11-19T06:20:32;99595.91;;;-0.71;76.49
81230;BME280;70701;44.452;18.652;2023-11-19T06:22:58;99609.22;;;-0.57;75.78
81230;BME280;70701;44.452;18.652;2023-11-19T06:25:24;99606.94;;;-0.55;75.73
81230;BME280;70701;44.452;18.652;2023-11-19T06:27:50;99606.34;;;-0.49;76.06
81230;BME280;70701;44.452;18.652;2023-11-19T06:30:17;99589.03;;;-0.53;75.92
81230;BME280;70701;44.452;18.652;2023-11-19T06:32:42;99587.38;;;-0.42;76.09
81230;BME280;70701;44.452;18.652;2023-11-19T06:35:08;99586.16;;;-0.28;75.61
81230;BME280;70701;44.452;18.652;2023-11-19T06:37:41;99589.53;;;-0.19;75.92
81230;BME280;70701;44.452;18.652;2023-11-19T06:40:09;99586.69;;;-0.23;75.63
81230;BME280;70701;44.452;18.652;2023-11-19T06:42:35;99596.47;;;-0.09;75.82
81230;BME280;70701;44.452;18.652;2023-11-19T06:45:02;99601.66;;;-0.04;75.79
81230;BME280;70701;44.452;18.652;2023-11-19T06:47:28;99589.28;;;-0.14;75.67
81230;BME280;70701;44.452;18.652;2023-11-19T06:49:54;99582.50;;;-0.04;75.89
81230;BME280;70701;44.452;18.652;2023-11-19T06:52:20;99580.56;;;0.12;75.61
81230;BME280;70701;44.452;18.652;2023-11-19T06:54:47;99589.31;;;0.18;75.44
81230;BME280;70701;44.452;18.652;2023-11-19T06:57:13;99579.59;;;0.21;76.21
81230;BME280;70701;44.452;18.652;2023-11-19T06:59:39;99570.50;;;0.32;75.73
81230;BME280;70701;44.452;18.652;2023-11-19T07:02:06;99588.97;;;0.35;75.90
81230;BME280;70701;44.452;18.652;2023-11-19T07:04:32;99578.53;;;0.41;75.61
81230;BME280;70701;44.452;18.652;2023-11-19T07:06:59;99582.59;;;0.47;75.99
81230;BME280;70701;44.452;18.652;2023-11-19T07:09:25;99588.19;;;0.51;75.87
81230;BME280;70701;44.452;18.652;2023-11-19T07:11:51;99596.75;;;0.49;76.23
81230;BME280;70701;44.452;18.652;2023-11-19T07:14:18;99604.97;;;0.49;76.59
81230;BME280;70701;44.452;18.652;2023-11-19T07:16:44;99600.63;;;0.64;76.79
81230;BME280;70701;44.452;18.652;2023-11-19T07:19:10;99604.94;;;0.65;76.38
81230;BME280;70701;44.452;18.652;2023-11-19T07:21:39;99598.59;;;0.61;76.87
81230;BME280;70701;44.452;18.652;2023-11-19T07:24:10;99570.13;;;0.50;76.86
81230;BME280;70701;44.452;18.652;2023-11-19T07:26:36;99596.53;;;0.74;76.48
81230;BME280;70701;44.452;18.652;2023-11-19T07:29:03;99599.88;;;0.83;76.31
81230;BME280;70701;44.452;18.652;2023-11-19T07:31:28;99591.31;;;0.85;76.00
81230;BME280;70701;44.452;18.652;2023-11-19T07:33:54;99580.41;;;0.88;76.64
81230;BME280;70701;44.452;18.652;2023-11-19T07:36:20;99581.44;;;1.00;76.28
81230;BME280;70701;44.452;18.652;2023-11-19T07:38:46;99584.47;;;1.14;75.31
81230;BME280;70701;44.452;18.652;2023-11-19T07:41:13;99595.00;;;1.12;75.76
81230;BME280;70701;44.452;18.652;2023-11-19T07:43:39;99596.56;;;1.29;75.08
81230;BME280;70701;44.452;18.652;2023-11-19T07:46:10;99584.34;;;1.46;74.61
81230;BME280;70701;44.452;18.652;2023-11-19T07:48:36;99583.53;;;1.65;73.52
81230;BME280;70701;44.452;18.652;2023-11-19T07:51:02;99575.34;;;1.88;72.71
81230;BME280;70701;44.452;18.652;2023-11-19T07:53:27;99589.69;;;2.01;72.21
81230;BME280;70701;44.452;18.652;2023-11-19T07:55:53;99557.03;;;1.96;72.00
81230;BME280;70701;44.452;18.652;2023-11-19T07:58:19;99566.81;;;2.16;71.63
81230;BME280;70701;44.452;18.652;2023-11-19T08:00:44;99551.34;;;1.85;73.14
81230;BME280;70701;44.452;18.652;2023-11-19T08:03:10;99536.63;;;1.73;73.38
81230;BME280;70701;44.452;18.652;2023-11-19T08:05:36;99561.22;;;1.89;73.79
81230;BME280;70701;44.452;18.652;2023-11-19T08:08:01;99553.41;;;1.91;73.47
81230;BME280;70701;44.452;18.652;2023-11-19T08:10:27;99496.56;;;1.72;72.71
81230;BME280;70701;44.452;18.652;2023-11-19T08:12:54;99539.81;;;2.22;71.97
81230;BME280;70701;44.452;18.652;2023-11-19T08:15:19;99549.09;;;2.40;71.76
81230;BME280;70701;44.452;18.652;2023-11-19T08:17:45;99550.72;;;2.41;72.01
81230;BME280;70701;44.452;18.652;2023-11-19T08:20:11;99551.31;;;2.54;71.82
81230;BME280;70701;44.452;18.652;2023-11-19T08:22:37;99550.66;;;2.64;71.83
81230;BME280;70701;44.452;18.652;2023-11-19T08:25:06;99538.25;;;2.78;71.61
81230;BME280;70701;44.452;18.652;2023-11-19T08:27:31;99529.16;;;2.73;71.59
81230;BME280;70701;44.452;18.652;2023-11-19T08:29:58;99524.47;;;3.04;70.58
81230;BME280;70701;44.452;18.652;2023-11-19T08:32:24;99529.72;;;3.17;69.65
81230;BME280;70701;44.452;18.652;2023-11-19T08:34:50;99518.13;;;3.00;70.34
81230;BME280;70701;44.452;18.652;2023-11-19T08:37:16;99501.94;;;3.25;69.31
81230;BME280;70701;44.452;18.652;2023-11-19T08:39:50;99477.03;;;3.52;67.91
81230;BME280;70701;44.452;18.652;2023-11-19T08:42:18;99486.81;;;3.87;67.34
81230;BME280;70701;44.452;18.652;2023-11-19T08:44:49;99483.66;;;3.88;67.57
81230;BME280;70701;44.452;18.652;2023-11-19T08:47:16;99496.78;;;3.61;69.00
81230;BME280;70701;44.452;18.652;2023-11-19T08:49:44;99504.84;;;3.40;70.23
81230;BME280;70701;44.452;18.652;2023-11-19T08:52:09;99511.78;;;3.30;71.19
81230;BME280;70701;44.452;18.652;2023-11-19T08:54:36;99515.88;;;3.40;70.12
81230;BME280;70701;44.452;18.652;2023-11-19T08:57:03;99519.03;;;3.42;69.37
81230;BME280;70701;44.452;18.652;2023-11-19T08:59:29;99517.16;;;3.49;70.12
81230;BME280;70701;44.452;18.652;2023-11-19T09:01:55;99507.41;;;3.59;69.53
81230;BME280;70701;44.452;18.652;2023-11-19T09:04:21;99528.25;;;3.60;69.69
81230;BME280;70701;44.452;18.652;2023-11-19T09:06:48;99509.72;;;3.54;69.53
81230;BME280;70701;44.452;18.652;2023-11-19T09:09:14;99496.63;;;3.47;69.22
81230;BME280;70701;44.452;18.652;2023-11-19T09:11:40;99490.47;;;3.57;69.16
81230;BME280;70701;44.452;18.652;2023-11-19T09:14:06;99489.13;;;3.81;68.45
81230;BME280;70701;44.452;18.652;2023-11-19T09:16:32;99488.09;;;4.00;67.95
81230;BME280;70701;44.452;18.652;2023-11-19T09:18:58;99481.75;;;3.93;67.62
81230;BME280;70701;44.452;18.652;2023-11-19T09:21:27;99475.44;;;3.96;67.46
81230;BME280;70701;44.452;18.652;2023-11-19T09:23:55;99480.34;;;4.13;67.37
81230;BME280;70701;44.452;18.652;2023-11-19T09:26:20;99481.91;;;4.14;67.90
81230;BME280;70701;44.452;18.652;2023-11-19T09:28:46;99474.44;;;4.18;67.79
81230;BME280;70701;44.452;18.652;2023-11-19T09:31:18;99457.88;;;4.15;67.23
81230;BME280;70701;44.452;18.652;2023-11-19T09:33:44;99469.31;;;4.13;67.25
81230;BME280;70701;44.452;18.652;2023-11-19T09:36:14;99461.81;;;4.14;67.59
81230;BME280;70701;44.452;18.652;2023-11-19T09:38:43;99472.84;;;4.14;67.96
81230;BME280;70701;44.452;18.652;2023-11-19T09:41:10;99462.59;;;4.14;67.90
81230;BME280;70701;44.452;18.652;2023-11-19T09:43:39;99457.22;;;4.32;67.58
81230;BME280;70701;44.452;18.652;2023-11-19T09:46:06;99470.00;;;4.58;66.68
81230;BME280;70701;44.452;18.652;2023-11-19T09:48:33;99466.88;;;4.67;66.15
81230;BME280;70701;44.452;18.652;2023-11-19T09:51:01;99460.69;;;4.88;65.85
81230;BME280;70701;44.452;18.652;2023-11-19T09:53:28;99449.03;;;4.50;65.40
81230;BME280;70701;44.452;18.652;2023-11-19T09:55:55;99439.25;;;4.60;65.10
81230;BME280;70701;44.452;18.652;2023-11-19T09:58:21;99429.03;;;4.67;64.42
81230;BME280;70701;44.452;18.652;2023-11-19T10:00:48;99424.78;;;4.92;63.34
81230;BME280;70701;44.452;18.652;2023-11-19T10:03:14;99426.84;;;5.16;62.62
81230;BME280;70701;44.452;18.652;2023-11-19T10:05:40;99421.69;;;5.07;62.10
81230;BME280;70701;44.452;18.652;2023-11-19T10:08:07;99408.66;;;5.04;62.71
81230;BME280;70701;44.452;18.652;2023-11-19T10:10:34;99401.63;;;5.32;61.85
81230;BME280;70701;44.452;18.652;2023-11-19T10:13:00;99400.44;;;5.44;61.19
81230;BME280;70701;44.452;18.652;2023-11-19T10:15:26;99395.34;;;5.64;61.16
81230;BME280;70701;44.452;18.652;2023-11-19T10:17:58;99388.22;;;5.74;60.53
81230;BME280;70701;44.452;18.652;2023-11-19T10:20:25;99387.44;;;5.62;61.26
81230;BME280;70701;44.452;18.652;2023-11-19T10:22:54;99374.00;;;5.68;61.53
81230;BME280;70701;44.452;18.652;2023-11-19T10:25:28;99371.25;;;5.64;62.06
81230;BME280;70701;44.452;18.652;2023-11-19T10:27:55;99361.75;;;5.80;61.38
81230;BME280;70701;44.452;18.652;2023-11-19T10:30:25;99355.06;;;5.84;62.10
81230;BME280;70701;44.452;18.652;2023-11-19T10:33:10;99356.63;;;6.00;61.88
81230;BME280;70701;44.452;18.652;2023-11-19T10:35:54;99353.84;;;6.11;61.74
81230;BME280;70701;44.452;18.652;2023-11-19T10:38:22;99340.03;;;6.11;61.87
81230;BME280;70701;44.452;18.652;2023-11-19T10:40:49;99326.97;;;6.11;61.47
81230;BME280;70701;44.452;18.652;2023-11-19T10:43:17;99313.13;;;6.18;61.45
81230;BME280;70701;44.452;18.652;2023-11-19T10:45:43;99309.19;;;6.19;61.09
81230;BME280;70701;44.452;18.652;2023-11-19T10:48:09;99281.81;;;6.39;60.52
81230;BME280;70701;44.452;18.652;2023-11-19T10:50:39;99273.78;;;6.67;60.03
81230;BME280;70701;44.452;18.652;2023-11-19T10:53:07;99262.72;;;6.63;60.02
81230;BME280;70701;44.452;18.652;2023-11-19T10:55:35;99243.22;;;6.81;59.15
81230;BME280;70701;44.452;18.652;2023-11-19T10:58:05;99217.91;;;6.79;59.54
81230;BME280;70701;44.452;18.652;2023-11-19T11:00:38;99221.50;;;6.79;59.37
81230;BME280;70701;44.452;18.652;2023-11-19T11:03:10;99210.00;;;6.81;59.89
81230;BME280;70701;44.452;18.652;2023-11-19T11:05:37;99207.19;;;6.88;58.66
81230;BME280;70701;44.452;18.652;2023-11-19T11:08:06;99199.09;;;6.59;59.64
81230;BME280;70701;44.452;18.652;2023-11-19T11:10:32;99216.88;;;6.58;59.66
81230;BME280;70701;44.452;18.652;2023-11-19T11:13:03;99212.84;;;6.70;59.19
81230;BME280;70701;44.452;18.652;2023-11-19T11:15:30;99233.78;;;6.71;59.16
81230;BME280;70701;44.452;18.652;2023-11-19T11:18:01;99230.94;;;6.86;58.89
81230;BME280;70701;44.452;18.652;2023-11-19T11:20:29;99235.19;;;6.97;59.18
81230;BME280;70701;44.452;18.652;2023-11-19T11:28:36;99196.59;;;7.25;58.79
81230;BME280;70701;44.452;18.652;2023-11-19T11:31:29;99192.97;;;7.28;59.00
81230;BME280;70701;44.452;18.652;2023-11-19T11:37:17;99203.81;;;7.11;57.49
81230;BME280;70701;44.452;18.652;2023-11-19T11:39:45;99198.16;;;7.26;57.14
81230;BME280;70701;44.452;18.652;2023-11-19T11:42:38;99182.09;;;7.48;56.31
81230;BME280;70701;44.452;18.652;2023-11-19T11:45:14;99200.13;;;7.67;55.63
81230;BME280;70701;44.452;18.652;2023-11-19T11:50:13;99186.16;;;7.77;56.32
81230;BME280;70701;44.452;18.652;2023-11-19T11:55:35;99151.38;;;8.00;59.81
81230;BME280;70701;44.452;18.652;2023-11-19T11:58:07;99165.22;;;8.04;57.05
81230;BME280;70701;44.452;18.652;2023-11-19T12:00:39;99161.84;;;7.89;57.54
81230;BME280;70701;44.452;18.652;2023-11-19T12:03:06;99164.66;;;7.85;57.11
81230;BME280;70701;44.452;18.652;2023-11-19T12:05:32;99163.47;;;7.83;57.31
81230;BME280;70701;44.452;18.652;2023-11-19T12:08:06;99170.53;;;7.91;56.68
81230;BME280;70701;44.452;18.652;2023-11-19T12:10:45;99174.81;;;7.95;62.90
81230;BME280;70701;44.452;18.652;2023-11-19T12:13:14;99172.09;;;7.92;57.45
81230;BME280;70701;44.452;18.652;2023-11-19T12:18:24;99153.09;;;8.21;56.69
81230;BME280;70701;44.452;18.652;2023-11-19T12:20:51;99143.97;;;8.21;56.54
81230;BME280;70701;44.452;18.652;2023-11-19T12:23:17;99153.63;;;8.40;56.08
81230;BME280;70701;44.452;18.652;2023-11-19T12:25:43;99132.78;;;8.55;55.41
81230;BME280;70701;44.452;18.652;2023-11-19T12:28:14;99137.50;;;8.58;55.40
81230;BME280;70701;44.452;18.652;2023-11-19T12:30:40;99141.13;;;8.55;55.40
81230;BME280;70701;44.452;18.652;2023-11-19T12:33:09;99130.69;;;8.63;54.85
81230;BME280;70701;44.452;18.652;2023-11-19T12:35:43;99125.53;;;8.61;54.70
81230;BME280;70701;44.452;18.652;2023-11-19T12:38:19;99122.50;;;8.52;55.34
81230;BME280;70701;44.452;18.652;2023-11-19T12:41:08;99112.28;;;8.49;55.19
81230;BME280;70701;44.452;18.652;2023-11-19T12:43:37;99121.22;;;8.60;55.04
81230;BME280;70701;44.452;18.652;2023-11-19T12:46:22;99102.66;;;8.53;53.73
81230;BME280;70701;44.452;18.652;2023-11-19T12:48:49;99098.59;;;8.62;54.09
81230;BME280;70701;44.452;18.652;2023-11-19T12:51:15;99090.38;;;8.54;53.99
81230;BME280;70701;44.452;18.652;2023-11-19T12:53:53;99087.09;;;8.32;54.03
81230;BME280;70701;44.452;18.652;2023-11-19T12:56:24;99104.31;;;8.51;53.88
81230;BME280;70701;44.452;18.652;2023-11-19T12:58:50;99094.88;;;8.45;54.68
81230;BME280;70701;44.452;18.652;2023-11-19T13:01:20;99106.34;;;8.47;52.40
81230;BME280;70701;44.452;18.652;2023-11-19T13:03:46;99104.72;;;8.49;51.76
81230;BME280;70701;44.452;18.652;2023-11-19T13:06:13;99114.50;;;8.57;51.15
81230;BME280;70701;44.452;18.652;2023-11-19T13:08:46;99102.91;;;8.63;51.75
81230;BME280;70701;44.452;18.652;2023-11-19T13:11:14;99110.25;;;8.77;51.54
81230;BME280;70701;44.452;18.652;2023-11-19T13:14:00;99113.78;;;8.77;50.58
81230;BME280;70701;44.452;18.652;2023-11-19T13:16:27;99075.03;;;8.70;50.21